KMKT

Mankato Regional Airport

Mankato, Minnesota, USA
METAR KMKT 181556Z AUTO 19010KT 10SM CLR 11/02 A3032 RMK AO2 SLP278 T01110022
Observed Flight Rules
Oct-18 @ 15:56 UTC (45 minutes ago) Visual Flight Rules
Wind Visibility Clouds
190° at 10 knots 10 miles
  • Clear skies
Temperatures Readings
Current 11°C / 52°F
Dewpoint 2°C / 36°F
Humidity 54%
Altimeter 30.32" Hg
Pressure 1027.8 hPa
Elevation 311
METAR KMKT 181556Z AUTO 19010KT 10SM CLR 11/02 A3032 RMK AO2 SLP278 T01110022
Observed Flight Rules
Oct-18 @ 15:56 UTC
(45 minutes ago)
VFR
Wind Visibility
190° at 10 knots 10 miles
Clouds
  • Clear skies
Temperature Dewpoint
11°C / 52°F 2°C / 36°F
Humidity Altimeter Pressure
54% 30.32" Hg 1027.8 hPa